sensor_id;sensor_type;location;lat;lon;timestamp;P1;durP1;ratioP1;P2;durP2;ratioP2
4232;SDS011;2130;48.472;11.934;2023-06-10T00:00:04;13.63;;;2.50;;
4232;SDS011;2130;48.472;11.934;2023-06-10T00:02:39;15.17;;;2.10;;
4232;SDS011;2130;48.472;11.934;2023-06-10T00:05:08;12.20;;;2.13;;
4232;SDS011;2130;48.472;11.934;2023-06-10T00:10:35;13.73;;;1.97;;
4232;SDS011;2130;48.472;11.934;2023-06-10T00:13:04;13.00;;;2.20;;
4232;SDS011;2130;48.472;11.934;2023-06-10T00:15:35;12.60;;;2.57;;
4232;SDS011;2130;48.472;11.934;2023-06-10T00:18:03;10.93;;;1.60;;
4232;SDS011;2130;48.472;11.934;2023-06-10T00:20:32;14.13;;;2.03;;
4232;SDS011;2130;48.472;11.934;2023-06-10T00:23:02;12.63;;;1.97;;
4232;SDS011;2130;48.472;11.934;2023-06-10T00:25:33;12.57;;;2.20;;
4232;SDS011;2130;48.472;11.934;2023-06-10T00:28:02;12.30;;;1.60;;
4232;SDS011;2130;48.472;11.934;2023-06-10T00:30:30;12.30;;;1.90;;
4232;SDS011;2130;48.472;11.934;2023-06-10T00:32:59;11.03;;;2.00;;
4232;SDS011;2130;48.472;11.934;2023-06-10T00:35:27;13.10;;;2.47;;
4232;SDS011;2130;48.472;11.934;2023-06-10T00:37:55;13.03;;;1.97;;
4232;SDS011;2130;48.472;11.934;2023-06-10T00:40:23;11.90;;;2.07;;
4232;SDS011;2130;48.472;11.934;2023-06-10T00:42:53;12.33;;;1.87;;
4232;SDS011;2130;48.472;11.934;2023-06-10T00:45:22;13.40;;;2.30;;
4232;SDS011;2130;48.472;11.934;2023-06-10T00:47:50;13.03;;;2.60;;
4232;SDS011;2130;48.472;11.934;2023-06-10T00:50:18;13.33;;;2.37;;
4232;SDS011;2130;48.472;11.934;2023-06-10T00:52:46;12.93;;;2.07;;
4232;SDS011;2130;48.472;11.934;2023-06-10T00:55:15;13.40;;;2.60;;
4232;SDS011;2130;48.472;11.934;2023-06-10T00:57:45;12.80;;;2.03;;
4232;SDS011;2130;48.472;11.934;2023-06-10T01:00:16;13.83;;;2.10;;
4232;SDS011;2130;48.472;11.934;2023-06-10T01:02:45;13.40;;;2.30;;
4232;SDS011;2130;48.472;11.934;2023-06-10T01:05:13;13.80;;;2.20;;
4232;SDS011;2130;48.472;11.934;2023-06-10T01:07:43;14.37;;;2.50;;
4232;SDS011;2130;48.472;11.934;2023-06-10T01:10:24;15.33;;;2.30;;
4232;SDS011;2130;48.472;11.934;2023-06-10T01:12:58;13.93;;;2.27;;
4232;SDS011;2130;48.472;11.934;2023-06-10T01:15:31;12.93;;;2.37;;
4232;SDS011;2130;48.472;11.934;2023-06-10T01:18:00;12.93;;;2.10;;
4232;SDS011;2130;48.472;11.934;2023-06-10T01:20:30;13.53;;;1.80;;
4232;SDS011;2130;48.472;11.934;2023-06-10T01:23:01;13.63;;;2.30;;
4232;SDS011;2130;48.472;11.934;2023-06-10T01:25:30;13.73;;;2.70;;
4232;SDS011;2130;48.472;11.934;2023-06-10T01:28:03;14.73;;;2.10;;
4232;SDS011;2130;48.472;11.934;2023-06-10T01:30:35;14.47;;;2.30;;
4232;SDS011;2130;48.472;11.934;2023-06-10T01:33:06;12.90;;;1.80;;
4232;SDS011;2130;48.472;11.934;2023-06-10T01:35:36;13.60;;;2.57;;
4232;SDS011;2130;48.472;11.934;2023-06-10T01:38:09;12.70;;;1.93;;
4232;SDS011;2130;48.472;11.934;2023-06-10T01:40:38;12.40;;;2.10;;
4232;SDS011;2130;48.472;11.934;2023-06-10T01:43:07;14.90;;;2.20;;
4232;SDS011;2130;48.472;11.934;2023-06-10T01:45:36;13.50;;;2.40;;
4232;SDS011;2130;48.472;11.934;2023-06-10T01:48:04;13.13;;;2.03;;
4232;SDS011;2130;48.472;11.934;2023-06-10T01:50:32;13.00;;;2.20;;
4232;SDS011;2130;48.472;11.934;2023-06-10T01:53:00;20.00;;;1.97;;
4232;SDS011;2130;48.472;11.934;2023-06-10T01:55:30;14.03;;;2.23;;
4232;SDS011;2130;48.472;11.934;2023-06-10T01:57:58;15.47;;;2.13;;
4232;SDS011;2130;48.472;11.934;2023-06-10T02:00:26;14.43;;;2.13;;
4232;SDS011;2130;48.472;11.934;2023-06-10T02:02:55;13.90;;;2.30;;
4232;SDS011;2130;48.472;11.934;2023-06-10T02:05:23;13.13;;;1.80;;
4232;SDS011;2130;48.472;11.934;2023-06-10T02:07:51;13.70;;;2.33;;
4232;SDS011;2130;48.472;11.934;2023-06-10T02:10:21;14.53;;;2.30;;
4232;SDS011;2130;48.472;11.934;2023-06-10T02:12:50;13.97;;;2.07;;
4232;SDS011;2130;48.472;11.934;2023-06-10T02:15:19;14.93;;;2.60;;
4232;SDS011;2130;48.472;11.934;2023-06-10T02:17:47;13.73;;;2.40;;
4232;SDS011;2130;48.472;11.934;2023-06-10T02:20:41;14.27;;;2.47;;
4232;SDS011;2130;48.472;11.934;2023-06-10T02:23:09;13.73;;;2.33;;
4232;SDS011;2130;48.472;11.934;2023-06-10T02:25:38;13.13;;;2.00;;
4232;SDS011;2130;48.472;11.934;2023-06-10T02:28:08;14.10;;;2.20;;
4232;SDS011;2130;48.472;11.934;2023-06-10T02:30:38;13.00;;;2.03;;
4232;SDS011;2130;48.472;11.934;2023-06-10T02:33:07;13.40;;;2.10;;
4232;SDS011;2130;48.472;11.934;2023-06-10T02:35:38;13.23;;;2.20;;
4232;SDS011;2130;48.472;11.934;2023-06-10T02:38:06;14.90;;;2.30;;
4232;SDS011;2130;48.472;11.934;2023-06-10T02:40:35;13.30;;;2.13;;
4232;SDS011;2130;48.472;11.934;2023-06-10T02:43:03;14.03;;;2.10;;
4232;SDS011;2130;48.472;11.934;2023-06-10T02:45:33;13.77;;;2.10;;
4232;SDS011;2130;48.472;11.934;2023-06-10T02:48:03;14.87;;;2.20;;
4232;SDS011;2130;48.472;11.934;2023-06-10T02:50:33;13.80;;;2.47;;
4232;SDS011;2130;48.472;11.934;2023-06-10T02:53:19;14.77;;;2.13;;
4232;SDS011;2130;48.472;11.934;2023-06-10T02:55:53;14.87;;;2.00;;
4232;SDS011;2130;48.472;11.934;2023-06-10T02:58:21;15.30;;;2.40;;
4232;SDS011;2130;48.472;11.934;2023-06-10T03:00:52;14.50;;;2.20;;
4232;SDS011;2130;48.472;11.934;2023-06-10T03:03:21;13.80;;;2.17;;
4232;SDS011;2130;48.472;11.934;2023-06-10T03:05:59;14.33;;;2.00;;
4232;SDS011;2130;48.472;11.934;2023-06-10T03:08:29;15.10;;;2.47;;
4232;SDS011;2130;48.472;11.934;2023-06-10T03:11:00;15.00;;;1.90;;
4232;SDS011;2130;48.472;11.934;2023-06-10T03:13:29;13.67;;;2.10;;
4232;SDS011;2130;48.472;11.934;2023-06-10T03:15:59;13.53;;;2.30;;
4232;SDS011;2130;48.472;11.934;2023-06-10T03:18:28;14.20;;;1.73;;
4232;SDS011;2130;48.472;11.934;2023-06-10T03:20:56;13.67;;;2.00;;
4232;SDS011;2130;48.472;11.934;2023-06-10T03:23:26;14.03;;;2.77;;
4232;SDS011;2130;48.472;11.934;2023-06-10T03:25:55;16.90;;;2.23;;
4232;SDS011;2130;48.472;11.934;2023-06-10T03:28:24;13.00;;;1.97;;
4232;SDS011;2130;48.472;11.934;2023-06-10T03:30:52;16.40;;;2.80;;
4232;SDS011;2130;48.472;11.934;2023-06-10T03:33:24;14.53;;;2.13;;
4232;SDS011;2130;48.472;11.934;2023-06-10T03:35:53;16.53;;;2.27;;
4232;SDS011;2130;48.472;11.934;2023-06-10T03:38:22;15.57;;;2.77;;
4232;SDS011;2130;48.472;11.934;2023-06-10T03:40:52;16.93;;;2.77;;
4232;SDS011;2130;48.472;11.934;2023-06-10T03:43:20;16.17;;;2.80;;
4232;SDS011;2130;48.472;11.934;2023-06-10T03:45:50;17.73;;;2.97;;
4232;SDS011;2130;48.472;11.934;2023-06-10T03:48:18;15.17;;;2.30;;
4232;SDS011;2130;48.472;11.934;2023-06-10T03:50:52;15.27;;;2.60;;
4232;SDS011;2130;48.472;11.934;2023-06-10T03:53:21;15.50;;;2.70;;
4232;SDS011;2130;48.472;11.934;2023-06-10T03:55:50;16.73;;;2.23;;
4232;SDS011;2130;48.472;11.934;2023-06-10T03:58:22;15.53;;;2.63;;
4232;SDS011;2130;48.472;11.934;2023-06-10T04:00:50;14.50;;;2.10;;
4232;SDS011;2130;48.472;11.934;2023-06-10T04:03:25;16.27;;;2.30;;
4232;SDS011;2130;48.472;11.934;2023-06-10T04:05:55;15.23;;;2.73;;
4232;SDS011;2130;48.472;11.934;2023-06-10T04:08:25;16.80;;;2.23;;
4232;SDS011;2130;48.472;11.934;2023-06-10T04:10:53;16.10;;;2.63;;
4232;SDS011;2130;48.472;11.934;2023-06-10T04:13:21;17.93;;;2.50;;
4232;SDS011;2130;48.472;11.934;2023-06-10T04:15:53;16.40;;;2.13;;
4232;SDS011;2130;48.472;11.934;2023-06-10T04:18:22;15.73;;;2.40;;
4232;SDS011;2130;48.472;11.934;2023-06-10T04:20:53;15.67;;;2.30;;
4232;SDS011;2130;48.472;11.934;2023-06-10T04:23:23;17.17;;;2.50;;
4232;SDS011;2130;48.472;11.934;2023-06-10T04:25:53;21.60;;;2.60;;
4232;SDS011;2130;48.472;11.934;2023-06-10T04:28:21;13.70;;;2.20;;
4232;SDS011;2130;48.472;11.934;2023-06-10T04:30:50;16.40;;;2.17;;
4232;SDS011;2130;48.472;11.934;2023-06-10T04:33:18;16.30;;;2.77;;
4232;SDS011;2130;48.472;11.934;2023-06-10T04:35:46;19.07;;;2.73;;
4232;SDS011;2130;48.472;11.934;2023-06-10T04:38:16;16.83;;;2.50;;
4232;SDS011;2130;48.472;11.934;2023-06-10T04:40:45;15.13;;;2.70;;
4232;SDS011;2130;48.472;11.934;2023-06-10T04:43:15;16.50;;;2.40;;
4232;SDS011;2130;48.472;11.934;2023-06-10T04:45:45;17.13;;;2.80;;
4232;SDS011;2130;48.472;11.934;2023-06-10T04:48:13;17.13;;;2.67;;
4232;SDS011;2130;48.472;11.934;2023-06-10T04:50:41;16.70;;;2.30;;
4232;SDS011;2130;48.472;11.934;2023-06-10T04:53:10;16.10;;;2.30;;
4232;SDS011;2130;48.472;11.934;2023-06-10T04:55:42;13.93;;;2.27;;
4232;SDS011;2130;48.472;11.934;2023-06-10T04:58:12;17.47;;;2.53;;
4232;SDS011;2130;48.472;11.934;2023-06-10T05:00:41;17.43;;;2.60;;
4232;SDS011;2130;48.472;11.934;2023-06-10T05:03:10;17.93;;;2.50;;
4232;SDS011;2130;48.472;11.934;2023-06-10T05:05:38;16.70;;;2.53;;
4232;SDS011;2130;48.472;11.934;2023-06-10T05:08:06;14.93;;;2.40;;
4232;SDS011;2130;48.472;11.934;2023-06-10T05:10:35;15.80;;;2.20;;
4232;SDS011;2130;48.472;11.934;2023-06-10T05:13:03;14.63;;;2.30;;
4232;SDS011;2130;48.472;11.934;2023-06-10T05:15:32;15.77;;;2.80;;
4232;SDS011;2130;48.472;11.934;2023-06-10T05:18:00;15.63;;;2.60;;
4232;SDS011;2130;48.472;11.934;2023-06-10T05:20:30;15.43;;;2.37;;
4232;SDS011;2130;48.472;11.934;2023-06-10T05:22:58;18.93;;;3.03;;
4232;SDS011;2130;48.472;11.934;2023-06-10T05:25:27;17.10;;;2.77;;
4232;SDS011;2130;48.472;11.934;2023-06-10T05:27:56;15.83;;;2.50;;
4232;SDS011;2130;48.472;11.934;2023-06-10T05:30:24;16.60;;;2.80;;
4232;SDS011;2130;48.472;11.934;2023-06-10T05:32:54;16.30;;;2.87;;
4232;SDS011;2130;48.472;11.934;2023-06-10T05:35:23;14.97;;;2.80;;
4232;SDS011;2130;48.472;11.934;2023-06-10T05:37:51;14.97;;;2.30;;
4232;SDS011;2130;48.472;11.934;2023-06-10T05:40:19;17.30;;;2.67;;
4232;SDS011;2130;48.472;11.934;2023-06-10T05:42:47;14.80;;;2.27;;
4232;SDS011;2130;48.472;11.934;2023-06-10T05:45:16;17.70;;;2.30;;
4232;SDS011;2130;48.472;11.934;2023-06-10T05:47:44;17.73;;;2.90;;
4232;SDS011;2130;48.472;11.934;2023-06-10T05:50:13;16.33;;;2.30;;
4232;SDS011;2130;48.472;11.934;2023-06-10T05:52:41;16.93;;;2.53;;
4232;SDS011;2130;48.472;11.934;2023-06-10T05:55:09;16.37;;;2.50;;
4232;SDS011;2130;48.472;11.934;2023-06-10T05:57:38;15.00;;;2.17;;
4232;SDS011;2130;48.472;11.934;2023-06-10T06:00:06;15.60;;;2.77;;
4232;SDS011;2130;48.472;11.934;2023-06-10T06:02:38;15.50;;;2.70;;
4232;SDS011;2130;48.472;11.934;2023-06-10T06:05:07;13.63;;;2.27;;
4232;SDS011;2130;48.472;11.934;2023-06-10T06:07:37;14.10;;;2.30;;
4232;SDS011;2130;48.472;11.934;2023-06-10T06:10:06;14.03;;;1.87;;
4232;SDS011;2130;48.472;11.934;2023-06-10T06:12:34;13.60;;;2.17;;
4232;SDS011;2130;48.472;11.934;2023-06-10T06:15:03;14.63;;;2.37;;
4232;SDS011;2130;48.472;11.934;2023-06-10T06:17:31;14.17;;;2.30;;
4232;SDS011;2130;48.472;11.934;2023-06-10T06:19:59;14.73;;;2.30;;
4232;SDS011;2130;48.472;11.934;2023-06-10T06:22:28;14.90;;;2.40;;
4232;SDS011;2130;48.472;11.934;2023-06-10T06:24:57;14.93;;;2.23;;
4232;SDS011;2130;48.472;11.934;2023-06-10T06:27:25;12.40;;;2.10;;
4232;SDS011;2130;48.472;11.934;2023-06-10T06:29:53;13.13;;;2.30;;
4232;SDS011;2130;48.472;11.934;2023-06-10T06:32:22;13.70;;;2.40;;
4232;SDS011;2130;48.472;11.934;2023-06-10T06:34:51;13.30;;;2.30;;
4232;SDS011;2130;48.472;11.934;2023-06-10T06:37:21;12.47;;;1.93;;
4232;SDS011;2130;48.472;11.934;2023-06-10T06:39:53;13.90;;;2.33;;
4232;SDS011;2130;48.472;11.934;2023-06-10T06:42:23;12.60;;;1.87;;
4232;SDS011;2130;48.472;11.934;2023-06-10T06:44:59;13.67;;;2.27;;
4232;SDS011;2130;48.472;11.934;2023-06-10T06:47:28;12.53;;;2.00;;
4232;SDS011;2130;48.472;11.934;2023-06-10T06:49:56;13.00;;;2.23;;
4232;SDS011;2130;48.472;11.934;2023-06-10T06:52:24;12.27;;;2.17;;
4232;SDS011;2130;48.472;11.934;2023-06-10T06:54:52;12.50;;;2.00;;
4232;SDS011;2130;48.472;11.934;2023-06-10T06:57:21;12.80;;;2.23;;
4232;SDS011;2130;48.472;11.934;2023-06-10T06:59:50;12.60;;;2.37;;
4232;SDS011;2130;48.472;11.934;2023-06-10T07:02:18;12.60;;;2.40;;
4232;SDS011;2130;48.472;11.934;2023-06-10T07:04:47;14.43;;;2.40;;
4232;SDS011;2130;48.472;11.934;2023-06-10T07:07:16;12.90;;;2.30;;
4232;SDS011;2130;48.472;11.934;2023-06-10T07:09:44;12.13;;;2.00;;
4232;SDS011;2130;48.472;11.934;2023-06-10T07:12:12;11.70;;;1.87;;
4232;SDS011;2130;48.472;11.934;2023-06-10T07:14:42;14.00;;;2.50;;
4232;SDS011;2130;48.472;11.934;2023-06-10T07:17:11;12.50;;;2.00;;
4232;SDS011;2130;48.472;11.934;2023-06-10T07:19:40;13.53;;;2.33;;
4232;SDS011;2130;48.472;11.934;2023-06-10T07:22:08;12.37;;;2.50;;
4232;SDS011;2130;48.472;11.934;2023-06-10T07:24:37;11.90;;;2.10;;
4232;SDS011;2130;48.472;11.934;2023-06-10T07:27:06;12.53;;;2.63;;
4232;SDS011;2130;48.472;11.934;2023-06-10T07:29:34;14.00;;;1.97;;
4232;SDS011;2130;48.472;11.934;2023-06-10T07:32:04;12.00;;;2.17;;
4232;SDS011;2130;48.472;11.934;2023-06-10T07:34:33;12.60;;;2.27;;
4232;SDS011;2130;48.472;11.934;2023-06-10T07:37:01;14.10;;;2.20;;
4232;SDS011;2130;48.472;11.934;2023-06-10T07:39:29;11.93;;;1.80;;
4232;SDS011;2130;48.472;11.934;2023-06-10T07:41:57;11.63;;;1.80;;
4232;SDS011;2130;48.472;11.934;2023-06-10T07:44:26;13.97;;;2.43;;
4232;SDS011;2130;48.472;11.934;2023-06-10T07:46:54;12.97;;;2.00;;
4232;SDS011;2130;48.472;11.934;2023-06-10T07:49:25;12.50;;;2.20;;
4232;SDS011;2130;48.472;11.934;2023-06-10T07:51:54;12.03;;;2.17;;
4232;SDS011;2130;48.472;11.934;2023-06-10T07:54:22;10.93;;;2.03;;
4232;SDS011;2130;48.472;11.934;2023-06-10T07:56:53;10.77;;;1.90;;
4232;SDS011;2130;48.472;11.934;2023-06-10T07:59:21;11.90;;;2.17;;
4232;SDS011;2130;48.472;11.934;2023-06-10T08:01:49;12.17;;;1.93;;
4232;SDS011;2130;48.472;11.934;2023-06-10T08:04:17;11.43;;;2.20;;
4232;SDS011;2130;48.472;11.934;2023-06-10T08:06:47;11.90;;;1.87;;
4232;SDS011;2130;48.472;11.934;2023-06-10T08:09:15;11.17;;;1.87;;
4232;SDS011;2130;48.472;11.934;2023-06-10T08:11:45;11.73;;;1.90;;
4232;SDS011;2130;48.472;11.934;2023-06-10T08:14:14;10.77;;;2.00;;
4232;SDS011;2130;48.472;11.934;2023-06-10T08:16:43;13.33;;;1.70;;
4232;SDS011;2130;48.472;11.934;2023-06-10T08:19:11;11.03;;;2.20;;
4232;SDS011;2130;48.472;11.934;2023-06-10T08:21:39;10.83;;;2.07;;
4232;SDS011;2130;48.472;11.934;2023-06-10T08:24:09;10.23;;;1.97;;
4232;SDS011;2130;48.472;11.934;2023-06-10T08:26:37;10.83;;;2.00;;
4232;SDS011;2130;48.472;11.934;2023-06-10T08:29:06;9.93;;;1.67;;
4232;SDS011;2130;48.472;11.934;2023-06-10T08:31:34;10.33;;;2.07;;
4232;SDS011;2130;48.472;11.934;2023-06-10T08:34:02;9.73;;;1.90;;
4232;SDS011;2130;48.472;11.934;2023-06-10T08:36:31;11.70;;;1.80;;
4232;SDS011;2130;48.472;11.934;2023-06-10T08:38:59;11.43;;;2.00;;
4232;SDS011;2130;48.472;11.934;2023-06-10T08:41:29;11.33;;;2.20;;
4232;SDS011;2130;48.472;11.934;2023-06-10T08:43:59;12.10;;;2.00;;
4232;SDS011;2130;48.472;11.934;2023-06-10T08:46:31;12.90;;;2.00;;
4232;SDS011;2130;48.472;11.934;2023-06-10T08:49:00;9.73;;;1.90;;
4232;SDS011;2130;48.472;11.934;2023-06-10T08:51:30;11.97;;;1.87;;
4232;SDS011;2130;48.472;11.934;2023-06-10T08:54:01;10.30;;;1.67;;
4232;SDS011;2130;48.472;11.934;2023-06-10T08:56:31;11.10;;;1.90;;
4232;SDS011;2130;48.472;11.934;2023-06-10T08:59:00;10.83;;;2.10;;
4232;SDS011;2130;48.472;11.934;2023-06-10T09:01:29;11.20;;;1.87;;
4232;SDS011;2130;48.472;11.934;2023-06-10T09:03:58;9.90;;;1.90;;
4232;SDS011;2130;48.472;11.934;2023-06-10T09:06:26;9.83;;;1.90;;
4232;SDS011;2130;48.472;11.934;2023-06-10T09:08:55;12.07;;;1.90;;
4232;SDS011;2130;48.472;11.934;2023-06-10T09:11:25;9.90;;;1.63;;
4232;SDS011;2130;48.472;11.934;2023-06-10T09:13:55;9.97;;;1.77;;
4232;SDS011;2130;48.472;11.934;2023-06-10T09:16:23;10.70;;;2.00;;
4232;SDS011;2130;48.472;11.934;2023-06-10T09:18:51;9.43;;;1.90;;
4232;SDS011;2130;48.472;11.934;2023-06-10T09:21:22;9.90;;;1.90;;
4232;SDS011;2130;48.472;11.934;2023-06-10T09:23:50;15.33;;;2.07;;
4232;SDS011;2130;48.472;11.934;2023-06-10T09:26:19;10.73;;;1.80;;
4232;SDS011;2130;48.472;11.934;2023-06-10T09:28:47;10.57;;;2.10;;
4232;SDS011;2130;48.472;11.934;2023-06-10T09:31:17;9.43;;;1.67;;
4232;SDS011;2130;48.472;11.934;2023-06-10T09:33:48;10.73;;;1.60;;
4232;SDS011;2130;48.472;11.934;2023-06-10T09:36:21;12.60;;;2.40;;
4232;SDS011;2130;48.472;11.934;2023-06-10T09:38:50;10.10;;;2.07;;
4232;SDS011;2130;48.472;11.934;2023-06-10T09:41:19;10.47;;;1.70;;
4232;SDS011;2130;48.472;11.934;2023-06-10T09:43:48;9.80;;;1.80;;
4232;SDS011;2130;48.472;11.934;2023-06-10T09:46:17;9.40;;;1.70;;
4232;SDS011;2130;48.472;11.934;2023-06-10T09:48:46;9.67;;;1.97;;
4232;SDS011;2130;48.472;11.934;2023-06-10T09:51:15;11.50;;;1.87;;
4232;SDS011;2130;48.472;11.934;2023-06-10T09:53:47;11.40;;;2.10;;
4232;SDS011;2130;48.472;11.934;2023-06-10T09:56:16;10.07;;;2.10;;
4232;SDS011;2130;48.472;11.934;2023-06-10T09:58:45;10.50;;;1.97;;
4232;SDS011;2130;48.472;11.934;2023-06-10T10:01:13;9.93;;;1.60;;
4232;SDS011;2130;48.472;11.934;2023-06-10T10:03:44;9.00;;;1.63;;
4232;SDS011;2130;48.472;11.934;2023-06-10T10:06:14;10.27;;;1.97;;
4232;SDS011;2130;48.472;11.934;2023-06-10T10:08:42;9.23;;;1.70;;
4232;SDS011;2130;48.472;11.934;2023-06-10T10:11:11;9.60;;;1.50;;
4232;SDS011;2130;48.472;11.934;2023-06-10T10:13:39;9.00;;;1.60;;
4232;SDS011;2130;48.472;11.934;2023-06-10T10:16:09;9.60;;;1.60;;
4232;SDS011;2130;48.472;11.934;2023-06-10T10:18:39;10.97;;;2.03;;
4232;SDS011;2130;48.472;11.934;2023-06-10T10:21:13;9.53;;;1.70;;
4232;SDS011;2130;48.472;11.934;2023-06-10T10:23:44;9.13;;;1.50;;
4232;SDS011;2130;48.472;11.934;2023-06-10T10:26:17;11.50;;;2.10;;
4232;SDS011;2130;48.472;11.934;2023-06-10T10:28:47;10.87;;;2.37;;
4232;SDS011;2130;48.472;11.934;2023-06-10T10:31:19;10.50;;;1.93;;
4232;SDS011;2130;48.472;11.934;2023-06-10T10:33:51;10.07;;;1.70;;
4232;SDS011;2130;48.472;11.934;2023-06-10T10:36:24;10.57;;;1.77;;
4232;SDS011;2130;48.472;11.934;2023-06-10T10:38:53;8.90;;;1.50;;
4232;SDS011;2130;48.472;11.934;2023-06-10T10:41:22;9.53;;;1.70;;
4232;SDS011;2130;48.472;11.934;2023-06-10T10:43:52;9.80;;;1.87;;
4232;SDS011;2130;48.472;11.934;2023-06-10T10:46:21;9.43;;;2.00;;
4232;SDS011;2130;48.472;11.934;2023-06-10T10:48:51;9.80;;;1.97;;
4232;SDS011;2130;48.472;11.934;2023-06-10T10:51:21;9.10;;;1.80;;
4232;SDS011;2130;48.472;11.934;2023-06-10T10:59:44;9.00;;;1.67;;
4232;SDS011;2130;48.472;11.934;2023-06-10T11:02:17;8.90;;;1.90;;
4232;SDS011;2130;48.472;11.934;2023-06-10T11:04:46;9.07;;;1.67;;
4232;SDS011;2130;48.472;11.934;2023-06-10T11:07:15;8.83;;;1.77;;
4232;SDS011;2130;48.472;11.934;2023-06-10T11:10:00;8.73;;;1.60;;
4232;SDS011;2130;48.472;11.934;2023-06-10T11:15:21;8.63;;;1.80;;
4232;SDS011;2130;48.472;11.934;2023-06-10T11:20:52;8.70;;;1.57;;
4232;SDS011;2130;48.472;11.934;2023-06-10T11:26:15;9.17;;;1.60;;
4232;SDS011;2130;48.472;11.934;2023-06-10T11:29:05;8.20;;;1.60;;
4232;SDS011;2130;48.472;11.934;2023-06-10T11:31:39;9.00;;;1.47;;
4232;SDS011;2130;48.472;11.934;2023-06-10T11:34:08;9.03;;;1.60;;
4232;SDS011;2130;48.472;11.934;2023-06-10T11:36:37;8.60;;;1.47;;
4232;SDS011;2130;48.472;11.934;2023-06-10T11:39:09;9.00;;;1.70;;
4232;SDS011;2130;48.472;11.934;2023-06-10T11:41:39;9.90;;;2.20;;
4232;SDS011;2130;48.472;11.934;2023-06-10T11:44:08;9.03;;;1.67;;
4232;SDS011;2130;48.472;11.934;2023-06-10T11:46:37;10.80;;;1.70;;
4232;SDS011;2130;48.472;11.934;2023-06-10T11:49:06;8.63;;;1.77;;
4232;SDS011;2130;48.472;11.934;2023-06-10T11:51:34;8.90;;;1.67;;
4232;SDS011;2130;48.472;11.934;2023-06-10T11:54:04;8.80;;;1.77;;
4232;SDS011;2130;48.472;11.934;2023-06-10T11:56:32;9.07;;;1.57;;
4232;SDS011;2130;48.472;11.934;2023-06-10T11:59:02;9.00;;;1.80;;
4232;SDS011;2130;48.472;11.934;2023-06-10T12:01:32;8.60;;;1.60;;
4232;SDS011;2130;48.472;11.934;2023-06-10T12:04:02;8.83;;;2.00;;
4232;SDS011;2130;48.472;11.934;2023-06-10T12:06:37;9.43;;;1.90;;
4232;SDS011;2130;48.472;11.934;2023-06-10T12:09:07;9.83;;;2.00;;
4232;SDS011;2130;48.472;11.934;2023-06-10T12:11:51;8.60;;;1.40;;
4232;SDS011;2130;48.472;11.934;2023-06-10T12:17:37;10.30;;;1.60;;
4232;SDS011;2130;48.472;11.934;2023-06-10T12:20:06;8.80;;;1.77;;
4232;SDS011;2130;48.472;11.934;2023-06-10T12:22:36;8.77;;;1.60;;
4232;SDS011;2130;48.472;11.934;2023-06-10T12:25:05;9.27;;;1.60;;
4232;SDS011;2130;48.472;11.934;2023-06-10T12:27:35;9.13;;;1.40;;
4232;SDS011;2130;48.472;11.934;2023-06-10T12:30:04;9.37;;;1.60;;
4232;SDS011;2130;48.472;11.934;2023-06-10T12:32:39;7.90;;;1.50;;
4232;SDS011;2130;48.472;11.934;2023-06-10T12:35:09;7.60;;;1.50;;
4232;SDS011;2130;48.472;11.934;2023-06-10T12:37:39;7.93;;;1.57;;
4232;SDS011;2130;48.472;11.934;2023-06-10T12:40:09;8.00;;;1.60;;
4232;SDS011;2130;48.472;11.934;2023-06-10T12:42:38;9.40;;;1.73;;
4232;SDS011;2130;48.472;11.934;2023-06-10T12:45:08;9.00;;;1.77;;
4232;SDS011;2130;48.472;11.934;2023-06-10T12:47:40;9.20;;;1.50;;
4232;SDS011;2130;48.472;11.934;2023-06-10T12:50:09;8.70;;;1.63;;
4232;SDS011;2130;48.472;11.934;2023-06-10T12:52:39;9.07;;;1.33;;
4232;SDS011;2130;48.472;11.934;2023-06-10T12:55:09;8.70;;;1.60;;
4232;SDS011;2130;48.472;11.934;2023-06-10T12:57:47;9.33;;;1.80;;
4232;SDS011;2130;48.472;11.934;2023-06-10T13:00:16;8.83;;;1.57;;
4232;SDS011;2130;48.472;11.934;2023-06-10T13:02:47;8.10;;;1.80;;
4232;SDS011;2130;48.472;11.934;2023-06-10T13:05:17;7.90;;;1.60;;
4232;SDS011;2130;48.472;11.934;2023-06-10T13:07:46;8.10;;;1.93;;
4232;SDS011;2130;48.472;11.934;2023-06-10T13:10:14;8.67;;;1.50;;
4232;SDS011;2130;48.472;11.934;2023-06-10T13:12:43;8.33;;;1.53;;
4232;SDS011;2130;48.472;11.934;2023-06-10T13:15:14;8.77;;;1.60;;
4232;SDS011;2130;48.472;11.934;2023-06-10T13:17:43;7.50;;;1.50;;
4232;SDS011;2130;48.472;11.934;2023-06-10T13:20:13;8.13;;;1.80;;
4232;SDS011;2130;48.472;11.934;2023-06-10T13:22:42;7.50;;;1.77;;
4232;SDS011;2130;48.472;11.934;2023-06-10T13:25:11;8.40;;;1.73;;
4232;SDS011;2130;48.472;11.934;2023-06-10T13:27:40;9.63;;;1.63;;
4232;SDS011;2130;48.472;11.934;2023-06-10T13:30:09;8.07;;;1.40;;
4232;SDS011;2130;48.472;11.934;2023-06-10T13:32:38;7.43;;;1.40;;
4232;SDS011;2130;48.472;11.934;2023-06-10T13:35:07;7.30;;;1.50;;
4232;SDS011;2130;48.472;11.934;2023-06-10T13:37:37;7.60;;;2.00;;
4232;SDS011;2130;48.472;11.934;2023-06-10T13:40:05;8.50;;;1.93;;
4232;SDS011;2130;48.472;11.934;2023-06-10T13:42:36;6.93;;;1.47;;
4232;SDS011;2130;48.472;11.934;2023-06-10T13:45:04;7.80;;;1.70;;
4232;SDS011;2130;48.472;11.934;2023-06-10T13:47:33;9.27;;;1.83;;
4232;SDS011;2130;48.472;11.934;2023-06-10T13:50:03;7.70;;;1.80;;
4232;SDS011;2130;48.472;11.934;2023-06-10T14:02:03;8.47;;;1.83;;
4232;SDS011;2130;48.472;11.934;2023-06-10T14:04:55;8.67;;;1.70;;
4232;SDS011;2130;48.472;11.934;2023-06-10T14:07:37;9.30;;;1.80;;
4232;SDS011;2130;48.472;11.934;2023-06-10T14:10:07;7.53;;;1.80;;
4232;SDS011;2130;48.472;11.934;2023-06-10T14:12:37;9.80;;;1.70;;
4232;SDS011;2130;48.472;11.934;2023-06-10T14:15:05;7.13;;;1.40;;
4232;SDS011;2130;48.472;11.934;2023-06-10T14:17:36;8.50;;;1.60;;
4232;SDS011;2130;48.472;11.934;2023-06-10T14:20:05;7.87;;;1.60;;
4232;SDS011;2130;48.472;11.934;2023-06-10T14:22:33;6.90;;;1.53;;
4232;SDS011;2130;48.472;11.934;2023-06-10T14:25:02;6.80;;;1.40;;
4232;SDS011;2130;48.472;11.934;2023-06-10T14:27:30;6.80;;;1.40;;
4232;SDS011;2130;48.472;11.934;2023-06-10T14:29:58;7.40;;;1.50;;
4232;SDS011;2130;48.472;11.934;2023-06-10T14:32:27;6.90;;;1.50;;
4232;SDS011;2130;48.472;11.934;2023-06-10T14:34:56;7.40;;;1.47;;
4232;SDS011;2130;48.472;11.934;2023-06-10T14:37:24;8.40;;;1.30;;
4232;SDS011;2130;48.472;11.934;2023-06-10T14:39:52;7.50;;;1.37;;
4232;SDS011;2130;48.472;11.934;2023-06-10T14:42:21;7.20;;;1.50;;
4232;SDS011;2130;48.472;11.934;2023-06-10T14:44:49;8.83;;;1.67;;
4232;SDS011;2130;48.472;11.934;2023-06-10T14:47:17;9.70;;;1.63;;
4232;SDS011;2130;48.472;11.934;2023-06-10T14:49:45;6.70;;;1.30;;
4232;SDS011;2130;48.472;11.934;2023-06-10T14:52:14;7.57;;;1.50;;
4232;SDS011;2130;48.472;11.934;2023-06-10T14:54:42;6.40;;;1.33;;
4232;SDS011;2130;48.472;11.934;2023-06-10T14:57:10;8.53;;;1.37;;
4232;SDS011;2130;48.472;11.934;2023-06-10T14:59:39;6.63;;;1.50;;
4232;SDS011;2130;48.472;11.934;2023-06-10T15:02:07;7.23;;;1.07;;
4232;SDS011;2130;48.472;11.934;2023-06-10T15:04:35;6.60;;;1.23;;
4232;SDS011;2130;48.472;11.934;2023-06-10T15:07:03;7.30;;;1.23;;
4232;SDS011;2130;48.472;11.934;2023-06-10T15:09:33;6.93;;;1.50;;
4232;SDS011;2130;48.472;11.934;2023-06-10T15:12:01;7.20;;;1.33;;
4232;SDS011;2130;48.472;11.934;2023-06-10T15:14:30;6.97;;;1.20;;
4232;SDS011;2130;48.472;11.934;2023-06-10T15:16:58;6.93;;;1.30;;
4232;SDS011;2130;48.472;11.934;2023-06-10T15:19:27;7.00;;;1.30;;
4232;SDS011;2130;48.472;11.934;2023-06-10T15:21:55;7.03;;;1.40;;
4232;SDS011;2130;48.472;11.934;2023-06-10T15:24:23;7.20;;;1.50;;
4232;SDS011;2130;48.472;11.934;2023-06-10T15:26:52;6.83;;;1.33;;
4232;SDS011;2130;48.472;11.934;2023-06-10T15:29:21;8.73;;;1.40;;
4232;SDS011;2130;48.472;11.934;2023-06-10T15:31:49;8.33;;;1.40;;
4232;SDS011;2130;48.472;11.934;2023-06-10T15:34:17;7.20;;;1.53;;
4232;SDS011;2130;48.472;11.934;2023-06-10T15:36:45;7.23;;;1.30;;